Time;durP1;ratioP1;P1;durP2;ratioP2;P2;SDS_P1;SDS_P2;PMS_P1;PMS_P2;Temp;Humidity;BMP_temperature;BMP_pressure;BME280_temperature;BME280_humidity;BME280_pressure;Samples;Min_cycle;Max_cycle;Signal;HPM_P1;HPM_P2
2022/01/11 00:00:35;;;;;;;20.10;12.10;;;;;;;-2.68;74.22;101787.58;105640;1270;72194;-88
2022/01/11 00:03:18;;;;;;;19.90;11.00;;;;;;;-2.79;74.66;101794.23;105788;1270;71517;-91
2022/01/11 00:06:02;;;;;;;12.60;6.90;;;;;;;-2.80;74.82;101797.80;106552;1270;73647;-90
2022/01/11 00:08:32;;;;;;;17.90;9.80;;;;;;;-2.70;75.36;101804.11;106113;1270;62642;-92
2022/01/11 00:11:04;;;;;;;17.10;10.20;;;;;;;-2.62;75.01;101807.70;106252;1270;60572;-89
2022/01/11 00:13:40;;;;;;;17.00;9.00;;;;;;;-2.57;74.79;101808.02;106340;1270;73900;-89
2022/01/11 00:16:14;;;;;;;18.10;10.20;;;;;;;-2.60;73.82;101809.92;106345;1270;72388;-81
2022/01/11 00:18:43;;;;;;;15.00;8.80;;;;;;;-2.83;74.78;101813.48;105646;1270;69070;-92
2022/01/11 00:21:13;;;;;;;15.10;9.40;;;;;;;-2.72;74.22;101815.54;106145;1270;75033;-90
2022/01/11 00:26:11;;;;;;;18.40;11.00;;;;;;;-2.88;74.77;101820.30;105712;1270;62879;-90
2022/01/11 00:28:40;;;;;;;14.40;9.30;;;;;;;-2.93;74.99;101823.36;105998;1270;73076;-92
2022/01/11 00:31:24;;;;;;;15.60;7.70;;;;;;;-2.96;74.75;101824.55;106521;1273;73124;-89
2022/01/11 00:33:53;;;;;;;17.60;10.30;;;;;;;-2.93;74.27;101823.20;106694;1270;69985;-90
2022/01/11 00:36:30;;;;;;;14.70;7.70;;;;;;;-2.96;74.21;101828.48;106365;1270;74928;-88
2022/01/11 00:38:59;;;;;;;15.10;8.50;;;;;;;-2.94;74.08;101829.34;106437;1270;60302;-87
2022/01/11 00:41:28;;;;;;;16.20;9.10;;;;;;;-2.99;74.45;101829.67;106098;1270;59832;-91
2022/01/11 00:43:57;;;;;;;12.60;7.40;;;;;;;-2.95;74.79;101827.63;106792;1271;71886;-93
2022/01/11 00:46:27;;;;;;;17.40;9.40;;;;;;;-2.97;74.72;101829.34;106251;1270;68709;-91
2022/01/11 00:48:57;;;;;;;15.20;9.50;;;;;;;-2.84;74.28;101827.81;105865;1270;70580;-86
2022/01/11 00:51:26;;;;;;;11.50;6.70;;;;;;;-2.98;74.15;101839.55;105470;1270;74781;-87
2022/01/11 00:53:55;;;;;;;17.10;8.50;;;;;;;-3.00;74.45;101845.36;105477;1270;59640;-89
2022/01/11 00:56:24;;;;;;;18.10;9.90;;;;;;;-2.92;74.13;101843.31;105470;1270;62244;-88
2022/01/11 00:58:53;;;;;;;13.70;8.20;;;;;;;-3.00;73.96;101850.96;105641;1270;74639;-86
2022/01/11 01:01:23;;;;;;;14.50;8.80;;;;;;;-2.97;74.00;101854.39;105490;1273;69822;-87
2022/01/11 01:03:52;;;;;;;15.10;8.70;;;;;;;-3.11;74.32;101858.79;105229;1270;612229;-85
2022/01/11 01:06:21;;;;;;;18.00;9.60;;;;;;;-3.14;74.78;101850.95;105478;1273;72207;-87
2022/01/11 01:08:50;;;;;;;12.70;7.10;;;;;;;-3.04;74.22;101850.13;105527;1273;59677;-86
2022/01/11 01:11:19;;;;;;;16.50;9.50;;;;;;;-3.02;73.80;101850.11;105516;1271;59061;-87
2022/01/11 01:13:48;;;;;;;13.50;8.20;;;;;;;-3.14;74.41;101856.23;105745;1270;72970;-87
2022/01/11 01:16:19;;;;;;;16.10;8.30;;;;;;;-3.05;74.11;101857.96;105743;1273;70837;-86
2022/01/11 01:19:38;;;;;;;14.90;7.80;;;;;;;-3.09;74.43;101865.27;105620;1270;69494;-86
2022/01/11 01:22:08;;;;;;;14.30;8.50;;;;;;;-3.06;74.35;101861.88;105683;1270;74808;-86
2022/01/11 01:24:37;;;;;;;14.90;7.80;;;;;;;-3.07;74.39;101855.23;105560;1270;62025;-85
2022/01/11 01:27:07;;;;;;;15.20;8.70;;;;;;;-3.04;74.65;101863.75;105394;1270;61316;-87
2022/01/11 01:29:38;;;;;;;13.10;8.10;;;;;;;-3.03;74.10;101860.20;105396;1270;74257;-86
2022/01/11 01:32:09;;;;;;;9.70;5.60;;;;;;;-3.04;74.01;101857.79;105349;1273;70229;-87
2022/01/11 01:34:38;;;;;;;11.50;6.30;;;;;;;-3.01;73.92;101864.09;105357;1271;69516;-87
2022/01/11 01:37:07;;;;;;;10.80;6.90;;;;;;;-3.07;73.96;101872.61;105605;1270;72078;-89
2022/01/11 01:39:37;;;;;;;13.00;7.70;;;;;;;-3.03;74.72;101873.14;105959;1270;59499;-83
2022/01/11 01:42:10;;;;;;;13.30;7.00;;;;;;;-2.99;73.86;101876.03;106222;1270;62202;-86
2022/01/11 01:44:43;;;;;;;11.40;6.20;;;;;;;-3.02;73.83;101880.29;105862;1272;73401;-88
2022/01/11 01:47:12;;;;;;;10.60;5.20;;;;;;;-3.02;73.61;101881.64;105789;1270;69597;-88
2022/01/11 01:49:41;;;;;;;11.40;6.40;;;;;;;-3.00;73.58;101879.10;105969;1270;70935;-90
2022/01/11 01:52:12;;;;;;;10.80;6.30;;;;;;;-3.02;73.58;101881.65;105512;1273;75276;-85
2022/01/11 01:54:43;;;;;;;14.00;7.50;;;;;;;-3.01;73.47;101882.85;105662;1269;59596;-90
2022/01/11 01:57:12;;;;;;;13.60;6.70;;;;;;;-3.07;73.75;101882.16;105812;1270;60621;-92
2022/01/11 01:59:42;;;;;;;10.80;6.20;;;;;;;-3.04;73.81;101880.46;105710;1273;73762;-93
2022/01/11 02:02:12;;;;;;;11.60;6.20;;;;;;;-2.98;73.60;101884.39;106014;1273;72845;-84
2022/01/11 02:04:42;;;;;;;13.80;7.30;;;;;;;-2.99;73.21;101882.86;107200;1270;68073;-82
2022/01/11 02:07:10;;;;;;;12.00;6.20;;;;;;;-3.07;73.65;101886.40;105885;1270;73540;-93
2022/01/11 02:09:40;;;;;;;13.50;6.20;;;;;;;-3.09;73.26;101885.55;105395;1272;61418;-88
2022/01/11 02:12:09;;;;;;;10.40;5.60;;;;;;;-3.10;73.39;101889.47;105482;1273;60534;-88
2022/01/11 02:14:38;;;;;;;7.90;4.60;;;;;;;-3.05;73.98;101886.58;105393;1271;75399;-91
2022/01/11 02:17:07;;;;;;;12.20;7.00;;;;;;;-2.97;73.55;101882.86;105466;1270;73177;-91
2022/01/11 02:19:36;;;;;;;11.50;6.50;;;;;;;-3.12;73.63;101893.40;105409;1273;70378;-87
2022/01/11 02:22:05;;;;;;;8.80;5.10;;;;;;;-3.06;73.53;101893.23;105431;1273;73699;-90
2022/01/11 02:24:35;;;;;;;7.60;4.40;;;;;;;-3.07;73.09;101894.42;105829;1273;63215;-90
2022/01/11 02:27:06;;;;;;;11.90;6.70;;;;;;;-3.12;73.58;101893.56;105756;1270;60352;-84
2022/01/11 02:29:37;;;;;;;10.40;5.80;;;;;;;-3.16;73.81;101896.96;105342;1273;74408;-85
2022/01/11 02:32:08;;;;;;;12.40;7.40;;;;;;;-3.15;73.96;101891.84;105410;1273;72468;-85
2022/01/11 02:34:37;;;;;;;9.90;6.00;;;;;;;-3.22;74.34;101895.58;105301;1273;70657;-85
2022/01/11 02:37:13;;;;;;;9.40;5.40;;;;;;;-3.17;74.91;101892.02;105416;1273;74215;-84
2022/01/11 02:39:50;;;;;;;11.30;5.90;;;;;;;-3.13;74.27;101888.96;105466;1271;59775;-86
2022/01/11 02:42:30;;;;;;;10.80;6.50;;;;;;;-3.19;74.21;101886.73;105761;1270;59616;-90
2022/01/11 02:44:59;;;;;;;13.30;7.90;;;;;;;-3.17;74.39;101886.73;106532;1270;73948;-90
2022/01/11 02:47:30;;;;;;;12.70;6.60;;;;;;;-3.18;74.70;101889.63;105974;1270;71181;-83
2022/01/11 02:49:59;;;;;;;13.60;6.50;;;;;;;-3.19;74.68;101895.24;106347;1270;67057;-83
2022/01/11 02:52:33;;;;;;;10.60;5.60;;;;;;;-3.19;75.40;101895.92;105812;1273;72508;-91
2022/01/11 02:55:11;;;;;;;10.10;5.90;;;;;;;-3.02;75.00;101900.58;105597;1270;60619;-88
2022/01/11 02:57:40;;;;;;;13.70;7.80;;;;;;;-3.02;74.54;101898.87;105461;1270;61203;-85
2022/01/11 03:00:21;;;;;;;11.40;6.20;;;;;;;-3.09;74.50;101899.88;105738;1270;73811;-93
2022/01/11 03:02:51;;;;;;;12.30;6.40;;;;;;;-3.09;74.84;101898.68;106349;1273;72223;-86
2022/01/11 03:05:23;;;;;;;13.80;7.50;;;;;;;-3.11;75.07;101898.51;105863;1273;68902;-87
2022/01/11 03:07:53;;;;;;;11.40;5.70;;;;;;;-3.12;75.28;101905.16;105673;1270;75008;-86
2022/01/11 03:12:56;;;;;;;11.70;5.40;;;;;;;-3.00;75.13;101898.87;105532;1272;59886;-87
2022/01/11 03:15:25;;;;;;;10.70;5.80;;;;;;;-2.97;75.14;101900.41;105649;1270;74777;-90
2022/01/11 03:17:58;;;;;;;11.70;6.80;;;;;;;-3.01;75.29;101905.17;105704;1273;71438;-90
2022/01/11 03:20:28;;;;;;;10.90;6.30;;;;;;;-2.96;75.10;101904.68;105676;1273;68854;-89
2022/01/11 03:22:57;;;;;;;14.30;7.80;;;;;;;-2.94;74.76;101901.96;105719;1270;72612;-90
2022/01/11 03:25:27;;;;;;;15.10;7.20;;;;;;;-3.05;75.35;101907.89;105531;1273;59808;-90
2022/01/11 03:27:56;;;;;;;12.80;6.00;;;;;;;-2.98;75.33;101909.27;105511;1271;60613;-90
2022/01/11 03:30:26;;;;;;;11.50;6.30;;;;;;;-2.88;75.48;101915.95;105548;1270;74977;-90
2022/01/11 03:32:57;;;;;;;13.00;7.40;;;;;;;-2.90;75.24;101922.93;105495;1271;70589;-92
2022/01/11 03:35:32;;;;;;;11.30;5.70;;;;;;;-2.90;75.02;101920.04;105926;1270;71694;-91
2022/01/11 03:38:04;;;;;;;12.90;5.60;;;;;;;-2.94;74.93;101923.94;106272;1270;74444;-92
2022/01/11 03:40:36;;;;;;;11.80;6.70;;;;;;;-3.08;75.30;101928.84;106649;1271;62448;-92
2022/01/11 03:43:06;;;;;;;13.20;7.10;;;;;;;-3.03;75.17;101925.63;106278;1271;59102;-92
2022/01/11 03:45:38;;;;;;;15.20;8.10;;;;;;;-3.04;75.59;101932.61;106391;1273;74861;-90
2022/01/11 03:48:13;;;;;;;12.80;7.30;;;;;;;-2.99;75.47;101936.21;106276;1273;69736;-92
2022/01/11 03:50:48;;;;;;;13.20;6.40;;;;;;;-2.92;74.91;101936.23;106071;1273;69900;-93
2022/01/11 03:53:27;;;;;;;15.70;8.60;;;;;;;-3.02;74.91;101935.52;105897;1273;74681;-92
2022/01/11 03:58:29;;;;;;;12.50;7.30;;;;;;;-2.99;75.44;101942.17;105350;1273;58991;-87
2022/01/11 04:00:58;;;;;;;12.30;7.40;;;;;;;-3.01;74.92;101946.27;105367;1273;73940;-85
2022/01/11 04:03:27;;;;;;;13.30;7.30;;;;;;;-3.02;75.20;101943.70;105578;1273;71234;-86
2022/01/11 04:05:56;;;;;;;12.70;7.40;;;;;;;-3.03;75.23;101941.98;105946;1273;68257;-84
2022/01/11 04:08:26;;;;;;;9.60;5.30;;;;;;;-2.92;74.87;101950.05;105380;1276;71733;-91
2022/01/11 04:10:55;;;;;;;8.80;5.00;;;;;;;-2.96;74.75;101950.70;105558;1273;59670;-89
2022/01/11 04:13:24;;;;;;;11.20;6.20;;;;;;;-3.04;75.01;101954.09;105492;1276;60215;-77
2022/01/11 04:15:53;;;;;;;10.10;5.60;;;;;;;-2.99;74.66;101953.94;105829;1273;73023;-91
2022/01/11 04:18:23;;;;;;;13.40;7.60;;;;;;;-3.05;74.84;101962.26;105550;1273;72229;-81
2022/01/11 04:20:52;;;;;;;10.00;5.70;;;;;;;-3.06;75.22;101958.52;105683;1273;69571;-88
2022/01/11 04:23:23;;;;;;;9.30;5.00;;;;;;;-3.03;74.66;101960.91;105877;1273;73032;-86
2022/01/11 04:25:54;;;;;;;10.80;5.30;;;;;;;-2.99;74.61;101960.92;107138;1272;59622;-88
2022/01/11 04:28:25;;;;;;;9.00;4.80;;;;;;;-2.98;74.25;101969.27;106452;1273;60798;-79
2022/01/11 04:31:00;;;;;;;11.90;5.00;;;;;;;-3.00;74.30;101967.91;106262;1273;72879;-92
2022/01/11 04:33:32;;;;;;;7.60;4.40;;;;;;;-3.01;74.32;101973.36;106272;1273;70604;-91
2022/01/11 04:36:03;;;;;;;8.90;5.50;;;;;;;-2.99;74.08;101971.33;106137;1273;69305;-87
2022/01/11 04:38:32;;;;;;;7.50;4.10;;;;;;;-2.99;74.49;101971.33;105888;1273;73581;-87
2022/01/11 04:41:01;;;;;;;7.10;4.30;;;;;;;-3.03;74.35;101973.69;105414;1273;61671;-85
2022/01/11 04:43:34;;;;;;;10.20;5.50;;;;;;;-3.02;73.81;101973.36;105533;1273;61311;-90
2022/01/11 04:46:03;;;;;;;10.60;5.60;;;;;;;-3.10;74.10;101978.77;105469;1273;74364;-89
2022/01/11 04:48:33;;;;;;;9.50;5.70;;;;;;;-3.04;73.73;101983.92;105468;1273;73169;-89
2022/01/11 04:51:05;;;;;;;8.70;4.90;;;;;;;-3.16;74.35;101987.77;105481;1273;70611;-87
2022/01/11 04:53:34;;;;;;;7.90;5.40;;;;;;;-3.06;73.91;101988.17;106048;1273;72721;-90
2022/01/11 04:56:04;;;;;;;9.00;5.20;;;;;;;-3.16;74.21;101992.39;105695;1273;59167;-87
2022/01/11 04:58:35;;;;;;;9.80;4.00;;;;;;;-3.09;74.07;101998.05;105665;1273;59873;-90
2022/01/11 05:01:04;;;;;;;8.90;5.00;;;;;;;-3.07;74.09;101998.38;105442;1273;73265;-90
2022/01/11 05:03:35;;;;;;;5.50;3.30;;;;;;;-3.09;74.05;102002.64;105498;1273;70525;-91
2022/01/11 05:06:05;;;;;;;10.70;5.20;;;;;;;-3.06;73.97;101997.54;105436;1273;71267;-89
2022/01/11 05:08:34;;;;;;;7.50;4.50;;;;;;;-3.07;73.99;102000.95;105556;1273;72743;-89
2022/01/11 05:11:04;;;;;;;8.80;4.70;;;;;;;-3.07;74.01;102010.14;106689;1273;59471;-91
2022/01/11 05:13:34;;;;;;;9.50;5.40;;;;;;;-3.03;74.40;102011.02;106873;1273;60717;-91
2022/01/11 05:16:09;;;;;;;9.90;6.10;;;;;;;-3.10;74.38;102016.27;105561;1273;71757;-87
2022/01/11 05:18:39;;;;;;;8.30;5.20;;;;;;;-3.04;74.64;102014.42;105403;1273;72773;-87
2022/01/11 05:21:08;;;;;;;9.40;5.10;;;;;;;-3.02;74.18;102021.59;106292;1271;71286;-92
2022/01/11 05:23:37;;;;;;;12.00;5.10;;;;;;;-2.96;74.27;102013.95;105608;1273;74750;-73
2022/01/11 05:26:07;;;;;;;10.90;5.60;;;;;;;-2.92;73.90;102017.72;105243;1270;59549;-75
2022/01/11 05:28:36;;;;;;;9.90;5.80;;;;;;;-2.95;73.89;102023.16;105359;1272;60836;-78
2022/01/11 05:31:06;;;;;;;11.10;5.60;;;;;;;-2.97;73.72;102025.02;105291;1270;75556;-79
2022/01/11 05:33:35;;;;;;;9.10;5.20;;;;;;;-3.00;74.08;102025.52;105515;1270;71117;-79
2022/01/11 05:36:06;;;;;;;11.40;6.10;;;;;;;-3.02;74.03;102031.48;105275;1273;68516;-80
2022/01/11 05:38:35;;;;;;;10.60;6.10;;;;;;;-3.05;73.92;102035.73;105218;1273;74441;-81
2022/01/11 05:41:04;;;;;;;11.70;6.20;;;;;;;-3.08;73.89;102032.82;105129;1274;61708;-80
2022/01/11 05:43:35;;;;;;;9.70;5.50;;;;;;;-3.15;74.07;102048.80;105028;1275;60039;-79
2022/01/11 05:46:06;;;;;;;7.70;5.20;;;;;;;-3.11;74.28;102050.19;105162;1273;72502;-80
2022/01/11 05:48:37;;;;;;;10.20;6.40;;;;;;;-3.06;74.19;102055.51;105204;1272;72797;-79
2022/01/11 05:51:06;;;;;;;10.60;5.70;;;;;;;-3.04;73.97;102057.21;105140;1273;71512;-80
2022/01/11 05:53:35;;;;;;;11.50;6.30;;;;;;;-3.00;73.59;102060.64;105101;1273;75257;-82
2022/01/11 05:56:04;;;;;;;8.60;4.70;;;;;;;-3.08;73.75;102061.45;105087;1273;61221;-77
2022/01/11 05:58:34;;;;;;;10.10;5.60;;;;;;;-3.03;73.26;102059.09;107412;1272;61971;-79
2022/01/11 06:01:04;;;;;;;8.50;4.80;;;;;;;-3.03;73.51;102064.38;106305;1274;73091;-78
2022/01/11 06:03:33;;;;;;;8.20;5.10;;;;;;;-3.01;73.35;102063.54;105287;1273;69737;-79
2022/01/11 06:06:02;;;;;;;8.60;4.70;;;;;;;-3.03;73.19;102069.31;105331;1273;68071;-77
2022/01/11 06:08:33;;;;;;;9.10;5.90;;;;;;;-3.03;73.13;102070.17;105225;1273;72486;-78
2022/01/11 06:11:03;;;;;;;9.10;5.20;;;;;;;-3.03;73.03;102079.36;105322;1273;60078;-79
2022/01/11 06:13:34;;;;;;;11.80;5.50;;;;;;;-3.06;72.92;102081.92;105323;1273;61894;-78
2022/01/11 06:16:04;;;;;;;9.80;5.70;;;;;;;-2.97;72.86;102091.68;105369;1273;73940;-78
2022/01/11 06:18:34;;;;;;;10.60;6.20;;;;;;;-3.11;73.40;102096.03;106421;1272;71100;-78
2022/01/11 06:21:14;;;;;;;10.70;5.00;;;;;;;-3.11;73.85;102093.81;105267;1273;69182;-78
2022/01/11 06:23:45;;;;;;;10.30;5.10;;;;;;;-3.07;73.39;102094.02;105328;1272;72270;-80
2022/01/11 06:26:16;;;;;;;9.30;5.30;;;;;;;-3.09;73.63;102097.06;105300;1273;61345;-79
2022/01/11 06:28:45;;;;;;;11.90;5.70;;;;;;;-3.06;73.58;102100.84;105320;1273;60634;-79
2022/01/11 06:31:14;;;;;;;9.90;5.40;;;;;;;-3.03;73.29;102102.04;105209;1273;75428;-77
2022/01/11 06:33:43;;;;;;;9.90;5.60;;;;;;;-3.02;73.48;102103.75;105162;1273;72829;-76
2022/01/11 06:36:15;;;;;;;11.00;6.00;;;;;;;-3.05;73.37;102104.77;105182;1273;69189;-76
2022/01/11 06:38:45;;;;;;;10.70;6.40;;;;;;;-3.05;73.58;102105.96;105211;1273;73985;-79
2022/01/11 06:41:16;;;;;;;10.60;6.10;;;;;;;-2.98;73.27;102113.84;105178;1272;60151;-79
2022/01/11 06:43:46;;;;;;;11.10;6.00;;;;;;;-3.04;72.82;102120.27;105232;1273;61882;-80
2022/01/11 06:46:15;;;;;;;9.90;5.60;;;;;;;-3.00;72.65;102121.65;105100;1273;75424;-81
2022/01/11 06:48:44;;;;;;;9.80;5.10;;;;;;;-2.99;72.48;102124.23;105222;1272;72227;-76
2022/01/11 06:51:13;;;;;;;9.70;5.50;;;;;;;-3.00;72.77;102128.66;105223;1273;70193;-79
2022/01/11 06:53:47;;;;;;;12.70;6.50;;;;;;;-3.05;72.40;102129.98;105532;1270;74537;-82
2022/01/11 06:56:17;;;;;;;13.20;5.90;;;;;;;-3.09;72.66;102137.11;105573;1270;60741;-83
2022/01/11 06:58:49;;;;;;;9.30;4.90;;;;;;;-3.06;72.83;102141.06;105657;1273;60395;-81
2022/01/11 07:01:19;;;;;;;11.90;5.70;;;;;;;-3.01;72.60;102144.66;105481;1271;73585;-83
2022/01/11 07:03:48;;;;;;;11.60;6.10;;;;;;;-2.98;72.52;102145.88;105439;1270;71049;-85
2022/01/11 07:06:25;;;;;;;11.20;6.90;;;;;;;-3.01;72.69;102150.30;105461;1270;70889;-83
2022/01/11 07:08:55;;;;;;;12.00;6.30;;;;;;;-3.03;73.00;102159.48;105309;1270;73826;-81
2022/01/11 07:11:27;;;;;;;11.20;5.70;;;;;;;-3.05;72.93;102161.86;105497;1273;61179;-82
2022/01/11 07:14:02;;;;;;;11.70;7.10;;;;;;;-3.25;73.92;102162.23;105555;1270;62038;-79
2022/01/11 07:16:31;;;;;;;10.40;5.80;;;;;;;-3.19;74.01;102167.04;105773;1270;75445;-82
2022/01/11 07:19:00;;;;;;;12.80;7.10;;;;;;;-3.11;73.23;102170.52;105481;1273;71223;-83
2022/01/11 07:21:29;;;;;;;13.80;8.30;;;;;;;-3.28;73.64;102173.10;105302;1270;70361;-82
2022/01/11 07:23:58;;;;;;;9.60;6.40;;;;;;;-3.28;73.86;102177.20;105381;1273;73193;-83
2022/01/11 07:26:27;;;;;;;13.30;7.70;;;;;;;-3.17;73.65;102180.69;105353;1270;61576;-84
2022/01/11 07:28:56;;;;;;;13.80;7.00;;;;;;;-3.11;73.33;102182.95;105418;1270;62415;-84
2022/01/11 07:31:26;;;;;;;11.60;7.00;;;;;;;-3.14;73.26;102182.92;105467;1270;74978;-82
2022/01/11 07:33:56;;;;;;;12.60;6.30;;;;;;;-3.20;73.57;102187.65;105423;1270;74082;-82
2022/01/11 07:36:26;;;;;;;15.50;9.00;;;;;;;-3.19;73.91;102191.08;105385;1269;71118;-83
2022/01/11 07:38:58;;;;;;;13.30;6.60;;;;;;;-3.20;73.80;102196.69;105487;1270;74504;-86
2022/01/11 07:41:31;;;;;;;14.60;9.00;;;;;;;-3.29;74.15;102199.34;105484;1270;60286;-82
2022/01/11 07:44:19;;;;;;;11.10;5.70;;;;;;;-3.28;74.24;102204.64;105374;1270;61480;-85
2022/01/11 07:46:49;;;;;;;10.70;6.10;;;;;;;-3.20;73.81;102204.02;105500;1270;75015;-85
2022/01/11 07:49:25;;;;;;;10.40;6.80;;;;;;;-3.26;73.75;102202.42;105507;1269;74024;-82
2022/01/11 07:51:55;;;;;;;11.20;6.20;;;;;;;-3.25;73.21;102209.08;105500;1270;70557;-87
2022/01/11 07:54:24;;;;;;;15.10;7.20;;;;;;;-3.31;73.20;102211.58;105425;1270;74033;-84
2022/01/11 07:56:53;;;;;;;13.90;6.70;;;;;;;-3.44;73.59;102205.49;105493;1270;62532;-82
2022/01/11 07:59:22;;;;;;;10.30;5.90;;;;;;;-3.38;73.43;102205.56;105397;1270;61873;-86
2022/01/11 08:02:12;;;;;;;8.40;5.60;;;;;;;-3.45;73.49;102212.83;105526;1268;74784;-84
2022/01/11 08:04:42;;;;;;;11.60;6.70;;;;;;;-3.43;73.33;102215.55;105262;1273;72472;-82
2022/01/11 08:07:11;;;;;;;12.70;5.70;;;;;;;-3.45;73.47;102214.86;105284;1270;69319;-83
2022/01/11 08:10:16;;;;;;;14.20;8.20;;;;;;;-3.41;73.54;102220.17;105181;1270;74427;-83
2022/01/11 08:12:52;;;;;;;10.40;5.80;;;;;;;-3.39;73.87;102223.95;105300;1270;60532;-82
2022/01/11 08:15:22;;;;;;;11.40;6.80;;;;;;;-3.35;73.39;102226.20;105259;1270;62294;-82
2022/01/11 08:17:51;;;;;;;13.20;6.80;;;;;;;-3.45;73.49;102227.13;105273;1270;72512;-80
2022/01/11 08:20:22;;;;;;;14.00;7.70;;;;;;;-3.51;73.85;102228.60;105354;1272;72319;-77
2022/01/11 08:22:54;;;;;;;11.40;5.80;;;;;;;-3.45;73.88;102231.21;105294;1270;70623;-78
2022/01/11 08:25:28;;;;;;;12.70;6.60;;;;;;;-3.39;73.37;102230.41;105156;1271;75908;-78
2022/01/11 08:27:59;;;;;;;7.50;4.40;;;;;;;-3.54;73.42;102237.95;105193;1270;62929;-79
2022/01/11 08:30:29;;;;;;;15.10;7.30;;;;;;;-3.40;72.75;102230.58;105265;1273;62839;-81
2022/01/11 08:33:02;;;;;;;13.70;7.20;;;;;;;-3.44;73.11;102232.09;105260;1270;74597;-78
2022/01/11 08:35:33;;;;;;;13.60;6.40;;;;;;;-3.41;72.45;102230.58;105249;1270;70119;-79
2022/01/11 08:38:06;;;;;;;15.20;8.50;;;;;;;-3.49;72.80;102235.95;105192;1273;70705;-79
2022/01/11 08:40:35;;;;;;;10.50;5.50;;;;;;;-3.50;73.41;102240.88;105222;1271;73509;-80
2022/01/11 08:43:06;;;;;;;12.60;6.80;;;;;;;-3.45;72.94;102237.17;105218;1273;62626;-80
2022/01/11 08:45:37;;;;;;;13.60;6.30;;;;;;;-3.44;72.87;102237.70;105218;1270;61277;-79
2022/01/11 08:48:09;;;;;;;12.20;6.50;;;;;;;-3.44;72.67;102245.54;105177;1270;72331;-81
2022/01/11 08:50:43;;;;;;;9.50;4.50;;;;;;;-3.41;72.41;102241.81;105172;1273;70057;-80
2022/01/11 08:53:13;;;;;;;8.60;5.00;;;;;;;-3.43;71.76;102248.10;105229;1270;69203;-79
2022/01/11 08:55:42;;;;;;;8.70;4.80;;;;;;;-3.39;71.79;102236.55;105148;1270;72764;-78
2022/01/11 08:58:11;;;;;;;11.30;6.50;;;;;;;-3.43;71.80;102244.52;105244;1270;59654;-78
2022/01/11 09:00:41;;;;;;;12.00;6.70;;;;;;;-3.54;71.85;102239.81;105243;1270;60639;-80
2022/01/11 09:03:11;;;;;;;12.00;5.90;;;;;;;-3.51;71.89;102239.17;105232;1273;71266;-81
2022/01/11 09:05:44;;;;;;;8.50;4.90;;;;;;;-3.43;71.54;102233.80;105231;1273;73452;-84
2022/01/11 09:08:14;;;;;;;7.50;4.40;;;;;;;-3.43;71.40;102236.70;105351;1270;71081;-81
2022/01/11 09:10:43;;;;;;;12.80;6.80;;;;;;;-3.45;71.46;102229.52;105291;1273;72527;-85
2022/01/11 09:13:13;;;;;;;9.70;5.10;;;;;;;-3.51;71.27;102224.86;105160;1273;60053;-81
2022/01/11 09:15:42;;;;;;;10.60;5.50;;;;;;;-3.41;71.09;102223.42;105448;1270;60823;-72
2022/01/11 09:18:12;;;;;;;11.20;5.90;;;;;;;-3.53;71.76;102214.27;105517;1270;72676;-72
2022/01/11 09:20:42;;;;;;;14.60;7.80;;;;;;;-3.41;72.07;102218.65;105468;1270;70913;-87
2022/01/11 09:23:12;;;;;;;9.00;5.50;;;;;;;-3.41;72.45;102208.77;105658;1270;68870;-92
2022/01/11 09:25:41;;;;;;;12.70;7.00;;;;;;;-3.31;72.29;102211.42;105315;1271;70268;-77
2022/01/11 09:28:13;;;;;;;11.40;6.20;;;;;;;-3.30;72.09;102206.48;105522;1270;59925;-89
2022/01/11 09:30:42;;;;;;;11.30;7.10;;;;;;;-3.21;71.79;102207.91;105508;1271;60888;-80
2022/01/11 09:33:12;;;;;;;12.10;6.30;;;;;;;-3.18;71.09;102213.91;105480;1270;72686;-78
2022/01/11 09:35:42;;;;;;;14.50;7.30;;;;;;;-3.19;70.21;102206.41;105506;1270;72980;-79
2022/01/11 09:38:20;;;;;;;18.70;9.50;;;;;;;-3.30;69.95;102205.81;105549;1273;69822;-83
2022/01/11 09:40:54;;;;;;;9.80;6.00;;;;;;;-3.34;70.01;102201.34;105392;1270;74999;-82
2022/01/11 09:43:27;;;;;;;12.60;5.70;;;;;;;-3.24;70.15;102201.76;105714;1270;64199;-91
2022/01/11 09:46:01;;;;;;;17.90;7.50;;;;;;;-3.25;70.16;102195.79;105734;1270;61902;-76
2022/01/11 09:48:32;;;;;;;13.10;7.60;;;;;;;-3.29;70.34;102200.86;105442;1270;76165;-71
2022/01/11 09:51:02;;;;;;;13.60;7.40;;;;;;;-3.27;70.39;102199.01;105539;1273;70381;-77
2022/01/11 09:53:32;;;;;;;12.40;6.70;;;;;;;-3.24;69.86;102196.81;105625;1270;70836;-88
2022/01/11 09:56:09;;;;;;;11.10;5.80;;;;;;;-3.13;70.37;102193.67;105581;1270;75481;-89
2022/01/11 09:58:45;;;;;;;12.80;7.40;;;;;;;-3.06;69.73;102191.01;105705;1270;61591;-88
2022/01/11 10:02:09;;;;;;;12.50;8.10;;;;;;;-3.07;69.51;102193.21;106551;1273;60720;-90
2022/01/11 10:05:23;;;;;;;15.90;8.00;;;;;;;-3.09;69.34;102194.55;106086;1273;71908;-90
2022/01/11 10:07:53;;;;;;;13.60;7.20;;;;;;;-3.08;69.40;102189.27;105710;1270;71651;-91
2022/01/11 10:10:26;;;;;;;10.00;7.10;;;;;;;-3.09;68.82;102186.89;106040;1270;68598;-90
2022/01/11 10:13:03;;;;;;;10.10;5.80;;;;;;;-2.97;68.82;102187.30;105693;1270;71568;-90
2022/01/11 10:15:39;;;;;;;10.30;6.40;;;;;;;-2.93;68.41;102188.02;105693;1270;59680;-90
2022/01/11 10:18:35;;;;;;;14.00;8.30;;;;;;;-2.90;67.58;102188.90;105633;1270;61421;-88
2022/01/11 10:21:34;;;;;;;11.60;7.00;;;;;;;-2.89;67.76;102182.26;105534;1270;74217;-90
2022/01/11 10:24:54;;;;;;;9.50;5.70;;;;;;;-2.69;66.85;102186.98;105536;1270;71998;-82
2022/01/11 10:27:32;;;;;;;11.50;7.30;;;;;;;-2.61;66.93;102186.17;106163;1270;69946;-89
2022/01/11 10:30:04;;;;;;;8.90;5.40;;;;;;;-2.68;65.54;102190.58;105641;1270;75090;-88
2022/01/11 10:32:42;;;;;;;9.20;5.00;;;;;;;-2.69;64.96;102185.79;105751;1270;59523;-92
2022/01/11 10:35:21;;;;;;;8.00;5.10;;;;;;;-2.65;64.78;102195.20;105523;1270;60657;-82
2022/01/11 10:38:31;;;;;;;7.30;5.00;;;;;;;-2.79;64.36;102197.50;105549;1270;73555;-82
2022/01/11 10:41:07;;;;;;;10.20;6.30;;;;;;;-2.78;64.10;102197.32;105569;1270;72578;-86
2022/01/11 10:43:44;;;;;;;7.80;5.50;;;;;;;-2.70;63.68;102194.83;105583;1270;71100;-79
2022/01/11 10:46:43;;;;;;;12.10;8.10;;;;;;;-2.73;63.69;102198.90;105484;1270;72205;-84
2022/01/11 10:49:35;;;;;;;9.80;5.60;;;;;;;-2.75;65.00;102196.66;105440;1270;61889;-82
2022/01/11 10:52:27;;;;;;;8.30;5.70;;;;;;;-2.62;63.81;102195.40;105471;1273;59620;-82
2022/01/11 10:55:07;;;;;;;8.10;5.10;;;;;;;-2.70;63.74;102199.42;105352;1273;74423;-84
2022/01/11 10:57:38;;;;;;;10.50;5.70;;;;;;;-2.75;63.04;102207.42;105449;1273;70243;-84
2022/01/11 11:00:25;;;;;;;12.10;6.50;;;;;;;-2.78;62.90;102203.65;105242;1272;70803;-83
2022/01/11 11:03:02;;;;;;;10.50;6.20;;;;;;;-2.70;62.97;102199.42;105440;1273;72017;-93
2022/01/11 11:05:40;;;;;;;8.70;4.50;;;;;;;-2.70;63.15;102201.14;105440;1270;64057;-76
2022/01/11 11:08:27;;;;;;;13.20;7.70;;;;;;;-2.59;62.56;102194.04;105304;1270;61122;-77
2022/01/11 11:11:06;;;;;;;7.30;3.90;;;;;;;-2.68;62.78;102195.86;105352;1270;75515;-77
2022/01/11 11:13:45;;;;;;;7.20;4.40;;;;;;;-2.71;63.33;102199.08;105337;1270;72996;-78
2022/01/11 11:16:29;;;;;;;12.80;6.60;;;;;;;-2.79;63.75;102200.40;105269;1273;69886;-83
2022/01/11 11:19:02;;;;;;;10.50;5.80;;;;;;;-2.73;64.41;102198.73;105304;1270;73914;-75
2022/01/11 11:21:39;;;;;;;11.50;7.00;;;;;;;-2.85;64.81;102204.95;105196;1270;64591;-76
2022/01/11 11:24:13;;;;;;;10.00;6.10;;;;;;;-2.76;65.36;102203.48;105350;1270;62180;-75
2022/01/11 11:26:49;;;;;;;13.20;6.30;;;;;;;-2.78;65.61;102203.30;105413;1270;72126;-80
2022/01/11 11:29:26;;;;;;;8.40;5.40;;;;;;;-2.83;65.25;102209.23;105309;1271;70555;-81
2022/01/11 11:32:12;;;;;;;13.30;7.90;;;;;;;-2.85;65.42;102209.73;105303;1270;70284;-77
2022/01/11 11:34:42;;;;;;;8.30;5.40;;;;;;;-2.97;65.83;102211.35;105207;1273;73899;-75
2022/01/11 11:37:14;;;;;;;8.90;4.80;;;;;;;-2.85;65.84;102210.75;105424;1271;62810;-84
2022/01/11 11:39:44;;;;;;;21.70;11.70;;;;;;;-2.81;65.75;102210.10;105317;1273;61187;-80
2022/01/11 11:42:18;;;;;;;11.30;6.40;;;;;;;-2.79;65.49;102209.60;105495;1270;72479;-84
2022/01/11 11:44:48;;;;;;;8.00;4.80;;;;;;;-2.78;65.31;102207.73;105416;1270;69744;-79